sensor_id;sensor_type;location;lat;lon;timestamp;P1;durP1;ratioP1;P2;durP2;ratioP2
20734;SDS011;10528;52.124;5.196;2023-08-07T00:02:23;8.45;;;1.92;;
20734;SDS011;10528;52.124;5.196;2023-08-07T00:04:50;8.88;;;2.20;;
20734;SDS011;10528;52.124;5.196;2023-08-07T00:07:17;7.55;;;2.85;;
20734;SDS011;10528;52.124;5.196;2023-08-07T00:09:44;8.88;;;2.72;;
20734;SDS011;10528;52.124;5.196;2023-08-07T00:12:11;7.03;;;1.77;;
20734;SDS011;10528;52.124;5.196;2023-08-07T00:14:38;10.70;;;2.47;;
20734;SDS011;10528;52.124;5.196;2023-08-07T00:17:05;11.70;;;2.72;;
20734;SDS011;10528;52.124;5.196;2023-08-07T00:19:32;9.40;;;2.72;;
20734;SDS011;10528;52.124;5.196;2023-08-07T00:21:59;7.55;;;2.03;;
20734;SDS011;10528;52.124;5.196;2023-08-07T00:24:26;9.32;;;2.40;;
20734;SDS011;10528;52.124;5.196;2023-08-07T00:26:53;8.85;;;2.35;;
20734;SDS011;10528;52.124;5.196;2023-08-07T00:29:20;12.20;;;2.75;;
20734;SDS011;10528;52.124;5.196;2023-08-07T00:31:47;8.10;;;2.30;;
20734;SDS011;10528;52.124;5.196;2023-08-07T00:34:14;11.38;;;2.85;;
20734;SDS011;10528;52.124;5.196;2023-08-07T00:36:42;11.45;;;2.85;;
20734;SDS011;10528;52.124;5.196;2023-08-07T00:39:09;16.65;;;2.78;;
20734;SDS011;10528;52.124;5.196;2023-08-07T00:41:38;12.80;;;3.13;;
20734;SDS011;10528;52.124;5.196;2023-08-07T00:44:05;12.07;;;2.72;;
20734;SDS011;10528;52.124;5.196;2023-08-07T00:46:33;9.32;;;2.20;;
20734;SDS011;10528;52.124;5.196;2023-08-07T00:49:01;12.55;;;2.33;;
20734;SDS011;10528;52.124;5.196;2023-08-07T00:51:29;8.77;;;2.92;;
20734;SDS011;10528;52.124;5.196;2023-08-07T00:53:57;7.57;;;1.88;;
20734;SDS011;10528;52.124;5.196;2023-08-07T00:56:27;11.18;;;2.53;;
20734;SDS011;10528;52.124;5.196;2023-08-07T00:58:56;8.57;;;2.03;;
20734;SDS011;10528;52.124;5.196;2023-08-07T01:01:25;9.13;;;2.10;;
20734;SDS011;10528;52.124;5.196;2023-08-07T01:03:53;6.88;;;2.08;;
20734;SDS011;10528;52.124;5.196;2023-08-07T01:06:20;10.60;;;2.50;;
20734;SDS011;10528;52.124;5.196;2023-08-07T01:08:47;9.10;;;1.88;;
20734;SDS011;10528;52.124;5.196;2023-08-07T01:11:18;10.27;;;1.77;;
20734;SDS011;10528;52.124;5.196;2023-08-07T01:14:37;4.60;;;1.50;;
20734;SDS011;10528;52.124;5.196;2023-08-07T01:17:34;7.80;;;1.63;;
20734;SDS011;10528;52.124;5.196;2023-08-07T01:20:01;9.43;;;1.83;;
20734;SDS011;10528;52.124;5.196;2023-08-07T01:22:30;9.88;;;2.10;;
20734;SDS011;10528;52.124;5.196;2023-08-07T01:24:57;8.40;;;1.92;;
20734;SDS011;10528;52.124;5.196;2023-08-07T01:27:28;7.13;;;1.60;;
20734;SDS011;10528;52.124;5.196;2023-08-07T01:30:11;9.20;;;1.85;;
20734;SDS011;10528;52.124;5.196;2023-08-07T01:35:53;12.27;;;2.42;;
20734;SDS011;10528;52.124;5.196;2023-08-07T01:38:24;10.75;;;1.98;;
20734;SDS011;10528;52.124;5.196;2023-08-07T01:40:54;9.85;;;1.90;;
20734;SDS011;10528;52.124;5.196;2023-08-07T01:43:23;7.95;;;1.90;;
20734;SDS011;10528;52.124;5.196;2023-08-07T01:45:51;8.60;;;1.88;;
20734;SDS011;10528;52.124;5.196;2023-08-07T01:48:17;6.70;;;1.77;;
20734;SDS011;10528;52.124;5.196;2023-08-07T01:50:45;9.10;;;1.63;;
20734;SDS011;10528;52.124;5.196;2023-08-07T01:53:13;7.68;;;2.28;;
20734;SDS011;10528;52.124;5.196;2023-08-07T01:55:40;9.05;;;1.63;;
20734;SDS011;10528;52.124;5.196;2023-08-07T01:58:07;5.15;;;1.60;;
20734;SDS011;10528;52.124;5.196;2023-08-07T02:00:34;9.43;;;1.98;;
20734;SDS011;10528;52.124;5.196;2023-08-07T02:03:01;9.93;;;1.77;;
20734;SDS011;10528;52.124;5.196;2023-08-07T02:05:28;7.35;;;1.90;;
20734;SDS011;10528;52.124;5.196;2023-08-07T02:07:55;7.82;;;2.20;;
20734;SDS011;10528;52.124;5.196;2023-08-07T02:10:23;6.47;;;1.67;;
20734;SDS011;10528;52.124;5.196;2023-08-07T02:12:50;8.90;;;2.08;;
20734;SDS011;10528;52.124;5.196;2023-08-07T02:15:17;7.72;;;1.55;;
20734;SDS011;10528;52.124;5.196;2023-08-07T02:17:49;5.80;;;1.42;;
20734;SDS011;10528;52.124;5.196;2023-08-07T02:20:16;10.32;;;1.80;;
20734;SDS011;10528;52.124;5.196;2023-08-07T02:22:43;10.13;;;1.98;;
20734;SDS011;10528;52.124;5.196;2023-08-07T02:25:10;8.43;;;1.83;;
20734;SDS011;10528;52.124;5.196;2023-08-07T02:27:41;6.72;;;1.95;;
20734;SDS011;10528;52.124;5.196;2023-08-07T02:30:08;10.27;;;1.80;;
20734;SDS011;10528;52.124;5.196;2023-08-07T02:32:36;7.68;;;2.08;;
20734;SDS011;10528;52.124;5.196;2023-08-07T02:35:03;9.90;;;2.40;;
20734;SDS011;10528;52.124;5.196;2023-08-07T02:37:30;8.27;;;2.08;;
20734;SDS011;10528;52.124;5.196;2023-08-07T02:39:57;9.75;;;2.10;;
20734;SDS011;10528;52.124;5.196;2023-08-07T02:42:24;8.55;;;2.38;;
20734;SDS011;10528;52.124;5.196;2023-08-07T02:44:51;9.98;;;2.30;;
20734;SDS011;10528;52.124;5.196;2023-08-07T02:47:18;6.97;;;1.92;;
20734;SDS011;10528;52.124;5.196;2023-08-07T02:49:45;10.60;;;2.10;;
20734;SDS011;10528;52.124;5.196;2023-08-07T02:52:12;6.35;;;1.80;;
20734;SDS011;10528;52.124;5.196;2023-08-07T02:54:39;8.23;;;2.30;;
20734;SDS011;10528;52.124;5.196;2023-08-07T02:57:06;9.85;;;1.95;;
20734;SDS011;10528;52.124;5.196;2023-08-07T02:59:32;6.13;;;2.00;;
20734;SDS011;10528;52.124;5.196;2023-08-07T03:01:59;11.82;;;2.00;;
20734;SDS011;10528;52.124;5.196;2023-08-07T03:04:26;10.45;;;2.45;;
20734;SDS011;10528;52.124;5.196;2023-08-07T03:06:53;6.57;;;1.92;;
20734;SDS011;10528;52.124;5.196;2023-08-07T03:09:21;9.43;;;2.13;;
20734;SDS011;10528;52.124;5.196;2023-08-07T03:11:48;10.00;;;2.10;;
20734;SDS011;10528;52.124;5.196;2023-08-07T03:14:15;9.38;;;2.53;;
20734;SDS011;10528;52.124;5.196;2023-08-07T03:16:42;7.03;;;2.40;;
20734;SDS011;10528;52.124;5.196;2023-08-07T03:19:09;6.50;;;1.90;;
20734;SDS011;10528;52.124;5.196;2023-08-07T03:21:36;7.93;;;1.90;;
20734;SDS011;10528;52.124;5.196;2023-08-07T03:24:03;10.40;;;2.00;;
20734;SDS011;10528;52.124;5.196;2023-08-07T03:26:30;8.73;;;1.98;;
20734;SDS011;10528;52.124;5.196;2023-08-07T03:28:57;8.65;;;1.98;;
20734;SDS011;10528;52.124;5.196;2023-08-07T03:31:24;6.15;;;2.10;;
20734;SDS011;10528;52.124;5.196;2023-08-07T03:33:51;6.55;;;1.95;;
20734;SDS011;10528;52.124;5.196;2023-08-07T03:36:18;5.03;;;1.48;;
20734;SDS011;10528;52.124;5.196;2023-08-07T03:38:44;5.82;;;1.40;;
20734;SDS011;10528;52.124;5.196;2023-08-07T03:41:11;5.97;;;1.75;;
20734;SDS011;10528;52.124;5.196;2023-08-07T03:43:40;5.13;;;1.70;;
20734;SDS011;10528;52.124;5.196;2023-08-07T03:46:07;6.60;;;1.70;;
20734;SDS011;10528;52.124;5.196;2023-08-07T03:48:34;7.28;;;1.80;;
20734;SDS011;10528;52.124;5.196;2023-08-07T03:51:05;6.88;;;1.77;;
20734;SDS011;10528;52.124;5.196;2023-08-07T03:53:45;5.25;;;1.38;;
20734;SDS011;10528;52.124;5.196;2023-08-07T03:56:13;6.50;;;1.92;;
20734;SDS011;10528;52.124;5.196;2023-08-07T03:58:40;6.45;;;1.85;;
20734;SDS011;10528;52.124;5.196;2023-08-07T04:01:07;6.40;;;1.92;;
20734;SDS011;10528;52.124;5.196;2023-08-07T04:03:34;7.95;;;2.00;;
20734;SDS011;10528;52.124;5.196;2023-08-07T04:06:02;9.18;;;2.10;;
20734;SDS011;10528;52.124;5.196;2023-08-07T04:08:31;8.23;;;1.95;;
20734;SDS011;10528;52.124;5.196;2023-08-07T04:13:33;6.63;;;2.25;;
20734;SDS011;10528;52.124;5.196;2023-08-07T04:16:01;7.43;;;1.88;;
20734;SDS011;10528;52.124;5.196;2023-08-07T04:18:31;12.20;;;2.45;;
20734;SDS011;10528;52.124;5.196;2023-08-07T04:21:00;8.80;;;2.20;;
20734;SDS011;10528;52.124;5.196;2023-08-07T04:23:28;9.40;;;1.90;;
20734;SDS011;10528;52.124;5.196;2023-08-07T04:25:55;11.25;;;2.38;;
20734;SDS011;10528;52.124;5.196;2023-08-07T04:28:23;11.65;;;2.72;;
20734;SDS011;10528;52.124;5.196;2023-08-07T04:30:50;10.75;;;2.78;;
20734;SDS011;10528;52.124;5.196;2023-08-07T04:33:21;9.82;;;2.22;;
20734;SDS011;10528;52.124;5.196;2023-08-07T04:35:48;5.60;;;2.10;;
20734;SDS011;10528;52.124;5.196;2023-08-07T04:38:15;8.50;;;1.73;;
20734;SDS011;10528;52.124;5.196;2023-08-07T04:40:47;10.00;;;2.03;;
20734;SDS011;10528;52.124;5.196;2023-08-07T04:43:15;6.85;;;1.60;;
20734;SDS011;10528;52.124;5.196;2023-08-07T04:45:46;11.57;;;2.15;;
20734;SDS011;10528;52.124;5.196;2023-08-07T04:48:14;7.95;;;1.92;;
20734;SDS011;10528;52.124;5.196;2023-08-07T04:50:41;9.45;;;2.40;;
20734;SDS011;10528;52.124;5.196;2023-08-07T04:53:09;6.55;;;2.05;;
20734;SDS011;10528;52.124;5.196;2023-08-07T04:55:36;6.22;;;1.85;;
20734;SDS011;10528;52.124;5.196;2023-08-07T04:58:03;7.38;;;1.90;;
20734;SDS011;10528;52.124;5.196;2023-08-07T05:00:29;9.93;;;2.70;;
20734;SDS011;10528;52.124;5.196;2023-08-07T05:02:56;6.78;;;2.17;;
20734;SDS011;10528;52.124;5.196;2023-08-07T05:05:24;11.43;;;3.00;;
20734;SDS011;10528;52.124;5.196;2023-08-07T05:07:51;12.18;;;2.70;;
20734;SDS011;10528;52.124;5.196;2023-08-07T05:10:18;9.60;;;2.47;;
20734;SDS011;10528;52.124;5.196;2023-08-07T05:12:45;9.15;;;2.30;;
20734;SDS011;10528;52.124;5.196;2023-08-07T05:15:12;8.02;;;2.33;;
20734;SDS011;10528;52.124;5.196;2023-08-07T05:17:39;12.07;;;3.05;;
20734;SDS011;10528;52.124;5.196;2023-08-07T05:20:06;7.95;;;2.25;;
20734;SDS011;10528;52.124;5.196;2023-08-07T05:22:35;10.10;;;2.10;;
20734;SDS011;10528;52.124;5.196;2023-08-07T05:25:02;10.27;;;2.42;;
20734;SDS011;10528;52.124;5.196;2023-08-07T05:27:30;10.15;;;2.65;;
20734;SDS011;10528;52.124;5.196;2023-08-07T05:29:57;9.55;;;2.90;;
20734;SDS011;10528;52.124;5.196;2023-08-07T05:32:24;9.68;;;2.45;;
20734;SDS011;10528;52.124;5.196;2023-08-07T05:34:50;10.15;;;2.28;;
20734;SDS011;10528;52.124;5.196;2023-08-07T05:37:17;10.23;;;2.58;;
20734;SDS011;10528;52.124;5.196;2023-08-07T05:39:45;11.32;;;2.40;;
20734;SDS011;10528;52.124;5.196;2023-08-07T05:42:12;11.88;;;2.42;;
20734;SDS011;10528;52.124;5.196;2023-08-07T05:44:39;12.20;;;2.33;;
20734;SDS011;10528;52.124;5.196;2023-08-07T05:47:06;6.15;;;1.95;;
20734;SDS011;10528;52.124;5.196;2023-08-07T05:49:33;7.88;;;2.00;;
20734;SDS011;10528;52.124;5.196;2023-08-07T05:52:00;7.05;;;2.00;;
20734;SDS011;10528;52.124;5.196;2023-08-07T05:54:27;7.85;;;2.03;;
20734;SDS011;10528;52.124;5.196;2023-08-07T05:56:54;9.52;;;2.33;;
20734;SDS011;10528;52.124;5.196;2023-08-07T05:59:21;9.35;;;2.70;;
20734;SDS011;10528;52.124;5.196;2023-08-07T06:01:48;9.65;;;2.88;;
20734;SDS011;10528;52.124;5.196;2023-08-07T06:04:15;8.18;;;2.25;;
20734;SDS011;10528;52.124;5.196;2023-08-07T06:06:42;9.77;;;2.53;;
20734;SDS011;10528;52.124;5.196;2023-08-07T06:09:09;7.38;;;2.35;;
20734;SDS011;10528;52.124;5.196;2023-08-07T06:11:36;8.80;;;2.53;;
20734;SDS011;10528;52.124;5.196;2023-08-07T06:14:03;9.45;;;2.90;;
20734;SDS011;10528;52.124;5.196;2023-08-07T06:16:30;10.93;;;2.97;;
20734;SDS011;10528;52.124;5.196;2023-08-07T06:18:57;10.82;;;2.65;;
20734;SDS011;10528;52.124;5.196;2023-08-07T06:21:24;8.75;;;3.17;;
20734;SDS011;10528;52.124;5.196;2023-08-07T06:23:52;8.43;;;2.67;;
20734;SDS011;10528;52.124;5.196;2023-08-07T06:26:18;15.38;;;3.42;;
20734;SDS011;10528;52.124;5.196;2023-08-07T06:28:45;13.27;;;2.88;;
20734;SDS011;10528;52.124;5.196;2023-08-07T06:31:13;9.95;;;2.97;;
20734;SDS011;10528;52.124;5.196;2023-08-07T06:33:42;8.90;;;2.63;;
20734;SDS011;10528;52.124;5.196;2023-08-07T06:36:08;14.43;;;2.83;;
20734;SDS011;10528;52.124;5.196;2023-08-07T06:38:35;10.35;;;2.85;;
20734;SDS011;10528;52.124;5.196;2023-08-07T06:41:03;9.52;;;2.63;;
20734;SDS011;10528;52.124;5.196;2023-08-07T06:43:30;10.20;;;3.20;;
20734;SDS011;10528;52.124;5.196;2023-08-07T06:45:58;6.88;;;2.20;;
20734;SDS011;10528;52.124;5.196;2023-08-07T06:48:25;11.80;;;3.08;;
20734;SDS011;10528;52.124;5.196;2023-08-07T06:50:52;9.63;;;2.60;;
20734;SDS011;10528;52.124;5.196;2023-08-07T06:53:19;7.65;;;2.30;;
20734;SDS011;10528;52.124;5.196;2023-08-07T06:55:46;9.65;;;2.58;;
20734;SDS011;10528;52.124;5.196;2023-08-07T06:58:13;7.03;;;2.85;;
20734;SDS011;10528;52.124;5.196;2023-08-07T07:00:40;8.63;;;2.40;;
20734;SDS011;10528;52.124;5.196;2023-08-07T07:03:07;7.40;;;2.35;;
20734;SDS011;10528;52.124;5.196;2023-08-07T07:05:36;6.95;;;1.88;;
20734;SDS011;10528;52.124;5.196;2023-08-07T07:08:03;11.55;;;2.38;;
20734;SDS011;10528;52.124;5.196;2023-08-07T07:10:31;8.43;;;2.13;;
20734;SDS011;10528;52.124;5.196;2023-08-07T07:12:58;9.45;;;2.35;;
20734;SDS011;10528;52.124;5.196;2023-08-07T07:15:25;6.40;;;2.08;;
20734;SDS011;10528;52.124;5.196;2023-08-07T07:17:52;9.48;;;2.47;;
20734;SDS011;10528;52.124;5.196;2023-08-07T07:20:19;8.45;;;2.33;;
20734;SDS011;10528;52.124;5.196;2023-08-07T07:22:47;5.70;;;2.30;;
20734;SDS011;10528;52.124;5.196;2023-08-07T07:25:14;6.95;;;2.45;;
20734;SDS011;10528;52.124;5.196;2023-08-07T07:27:41;7.72;;;2.35;;
20734;SDS011;10528;52.124;5.196;2023-08-07T07:30:08;6.47;;;2.17;;
20734;SDS011;10528;52.124;5.196;2023-08-07T07:32:35;10.73;;;2.78;;
20734;SDS011;10528;52.124;5.196;2023-08-07T07:35:02;8.45;;;3.20;;
20734;SDS011;10528;52.124;5.196;2023-08-07T07:37:30;11.45;;;3.58;;
20734;SDS011;10528;52.124;5.196;2023-08-07T07:39:58;6.65;;;2.30;;
20734;SDS011;10528;52.124;5.196;2023-08-07T07:42:25;7.47;;;2.72;;
20734;SDS011;10528;52.124;5.196;2023-08-07T07:44:52;10.68;;;2.55;;
20734;SDS011;10528;52.124;5.196;2023-08-07T07:47:19;6.90;;;2.65;;
20734;SDS011;10528;52.124;5.196;2023-08-07T07:49:46;8.65;;;2.30;;
20734;SDS011;10528;52.124;5.196;2023-08-07T07:52:14;10.43;;;2.40;;
20734;SDS011;10528;52.124;5.196;2023-08-07T07:54:41;12.63;;;2.50;;
20734;SDS011;10528;52.124;5.196;2023-08-07T07:57:08;8.02;;;2.13;;
20734;SDS011;10528;52.124;5.196;2023-08-07T07:59:35;9.07;;;2.53;;
20734;SDS011;10528;52.124;5.196;2023-08-07T08:02:03;12.75;;;2.70;;
20734;SDS011;10528;52.124;5.196;2023-08-07T08:04:30;9.13;;;2.33;;
20734;SDS011;10528;52.124;5.196;2023-08-07T08:06:58;10.05;;;2.00;;
20734;SDS011;10528;52.124;5.196;2023-08-07T08:09:26;10.63;;;2.33;;
20734;SDS011;10528;52.124;5.196;2023-08-07T08:11:53;8.98;;;2.08;;
20734;SDS011;10528;52.124;5.196;2023-08-07T08:14:20;7.32;;;1.80;;
20734;SDS011;10528;52.124;5.196;2023-08-07T08:16:47;11.95;;;1.80;;
20734;SDS011;10528;52.124;5.196;2023-08-07T08:19:14;7.10;;;2.33;;
20734;SDS011;10528;52.124;5.196;2023-08-07T08:21:42;11.68;;;2.72;;
20734;SDS011;10528;52.124;5.196;2023-08-07T08:24:09;9.70;;;2.17;;
20734;SDS011;10528;52.124;5.196;2023-08-07T08:26:36;11.45;;;2.38;;
20734;SDS011;10528;52.124;5.196;2023-08-07T08:29:05;9.07;;;2.25;;
20734;SDS011;10528;52.124;5.196;2023-08-07T08:31:34;8.70;;;2.03;;
20734;SDS011;10528;52.124;5.196;2023-08-07T08:34:01;9.43;;;2.65;;
20734;SDS011;10528;52.124;5.196;2023-08-07T08:36:30;10.02;;;2.15;;
20734;SDS011;10528;52.124;5.196;2023-08-07T08:38:57;9.45;;;2.47;;
20734;SDS011;10528;52.124;5.196;2023-08-07T08:41:24;8.90;;;2.05;;
20734;SDS011;10528;52.124;5.196;2023-08-07T08:43:52;19.10;;;2.88;;
20734;SDS011;10528;52.124;5.196;2023-08-07T08:46:21;12.88;;;2.45;;
20734;SDS011;10528;52.124;5.196;2023-08-07T08:48:55;6.80;;;1.85;;
20734;SDS011;10528;52.124;5.196;2023-08-07T08:51:25;8.63;;;1.92;;
20734;SDS011;10528;52.124;5.196;2023-08-07T08:53:52;6.35;;;1.58;;
20734;SDS011;10528;52.124;5.196;2023-08-07T08:56:22;12.40;;;1.85;;
20734;SDS011;10528;52.124;5.196;2023-08-07T08:58:50;9.05;;;2.08;;
20734;SDS011;10528;52.124;5.196;2023-08-07T09:01:18;8.90;;;1.60;;
20734;SDS011;10528;52.124;5.196;2023-08-07T09:03:45;7.47;;;2.20;;
20734;SDS011;10528;52.124;5.196;2023-08-07T09:06:13;9.70;;;1.92;;
20734;SDS011;10528;52.124;5.196;2023-08-07T09:08:41;14.20;;;2.10;;
20734;SDS011;10528;52.124;5.196;2023-08-07T09:11:10;6.95;;;2.63;;
20734;SDS011;10528;52.124;5.196;2023-08-07T09:13:40;8.00;;;2.10;;
20734;SDS011;10528;52.124;5.196;2023-08-07T09:16:09;8.52;;;1.80;;
20734;SDS011;10528;52.124;5.196;2023-08-07T09:18:38;7.38;;;2.25;;
20734;SDS011;10528;52.124;5.196;2023-08-07T09:21:06;6.30;;;1.85;;
20734;SDS011;10528;52.124;5.196;2023-08-07T09:23:33;10.30;;;2.30;;
20734;SDS011;10528;52.124;5.196;2023-08-07T09:26:00;5.22;;;2.00;;
20734;SDS011;10528;52.124;5.196;2023-08-07T09:28:31;7.47;;;2.45;;
20734;SDS011;10528;52.124;5.196;2023-08-07T09:30:59;7.10;;;2.13;;
20734;SDS011;10528;52.124;5.196;2023-08-07T09:33:29;5.53;;;2.00;;
20734;SDS011;10528;52.124;5.196;2023-08-07T09:35:59;4.55;;;1.95;;
20734;SDS011;10528;52.124;5.196;2023-08-07T09:38:31;7.20;;;1.77;;
20734;SDS011;10528;52.124;5.196;2023-08-07T09:41:02;8.07;;;2.30;;
20734;SDS011;10528;52.124;5.196;2023-08-07T09:43:36;7.00;;;2.28;;
20734;SDS011;10528;52.124;5.196;2023-08-07T09:46:06;7.18;;;1.70;;
20734;SDS011;10528;52.124;5.196;2023-08-07T09:48:41;10.45;;;2.13;;
20734;SDS011;10528;52.124;5.196;2023-08-07T09:51:10;12.25;;;2.05;;
20734;SDS011;10528;52.124;5.196;2023-08-07T09:53:38;6.40;;;1.60;;
20734;SDS011;10528;52.124;5.196;2023-08-07T09:56:05;6.68;;;1.80;;
20734;SDS011;10528;52.124;5.196;2023-08-07T09:58:33;7.68;;;2.17;;
20734;SDS011;10528;52.124;5.196;2023-08-07T10:01:00;9.20;;;2.28;;
20734;SDS011;10528;52.124;5.196;2023-08-07T10:03:31;15.63;;;2.97;;
20734;SDS011;10528;52.124;5.196;2023-08-07T10:05:58;12.05;;;2.50;;
20734;SDS011;10528;52.124;5.196;2023-08-07T10:08:25;13.75;;;2.42;;
20734;SDS011;10528;52.124;5.196;2023-08-07T10:10:54;8.18;;;2.22;;
20734;SDS011;10528;52.124;5.196;2023-08-07T10:13:22;7.88;;;2.50;;
20734;SDS011;10528;52.124;5.196;2023-08-07T10:16:04;9.40;;;1.80;;
20734;SDS011;10528;52.124;5.196;2023-08-07T10:18:32;8.52;;;2.08;;
20734;SDS011;10528;52.124;5.196;2023-08-07T10:21:01;5.93;;;1.83;;
20734;SDS011;10528;52.124;5.196;2023-08-07T10:23:34;6.65;;;2.00;;
20734;SDS011;10528;52.124;5.196;2023-08-07T10:26:07;7.97;;;2.10;;
20734;SDS011;10528;52.124;5.196;2023-08-07T10:28:39;14.63;;;2.20;;
20734;SDS011;10528;52.124;5.196;2023-08-07T10:31:08;8.02;;;2.35;;
20734;SDS011;10528;52.124;5.196;2023-08-07T10:33:38;8.77;;;1.77;;
20734;SDS011;10528;52.124;5.196;2023-08-07T10:36:08;6.05;;;1.73;;
20734;SDS011;10528;52.124;5.196;2023-08-07T10:38:36;8.82;;;2.45;;
20734;SDS011;10528;52.124;5.196;2023-08-07T10:41:07;6.75;;;2.17;;
20734;SDS011;10528;52.124;5.196;2023-08-07T10:43:39;8.82;;;1.73;;
20734;SDS011;10528;52.124;5.196;2023-08-07T10:46:09;5.97;;;1.70;;
20734;SDS011;10528;52.124;5.196;2023-08-07T10:48:40;8.75;;;2.10;;
20734;SDS011;10528;52.124;5.196;2023-08-07T10:51:12;6.15;;;1.30;;
20734;SDS011;10528;52.124;5.196;2023-08-07T10:53:41;6.20;;;1.52;;
20734;SDS011;10528;52.124;5.196;2023-08-07T10:56:15;6.18;;;1.60;;
20734;SDS011;10528;52.124;5.196;2023-08-07T10:59:09;6.85;;;1.80;;
20734;SDS011;10528;52.124;5.196;2023-08-07T11:04:10;5.60;;;1.90;;
20734;SDS011;10528;52.124;5.196;2023-08-07T11:06:40;7.57;;;1.88;;
20734;SDS011;10528;52.124;5.196;2023-08-07T11:09:09;6.57;;;2.33;;
20734;SDS011;10528;52.124;5.196;2023-08-07T11:11:43;5.25;;;1.55;;
20734;SDS011;10528;52.124;5.196;2023-08-07T11:14:14;8.13;;;2.15;;
20734;SDS011;10528;52.124;5.196;2023-08-07T11:16:44;7.70;;;2.10;;
20734;SDS011;10528;52.124;5.196;2023-08-07T11:19:13;6.20;;;2.10;;
20734;SDS011;10528;52.124;5.196;2023-08-07T11:21:42;8.88;;;1.83;;
20734;SDS011;10528;52.124;5.196;2023-08-07T11:24:12;7.05;;;3.22;;
20734;SDS011;10528;52.124;5.196;2023-08-07T11:26:42;6.43;;;1.67;;
20734;SDS011;10528;52.124;5.196;2023-08-07T11:29:10;6.07;;;2.25;;
20734;SDS011;10528;52.124;5.196;2023-08-07T11:31:42;8.30;;;2.33;;
20734;SDS011;10528;52.124;5.196;2023-08-07T11:34:10;6.82;;;2.17;;
20734;SDS011;10528;52.124;5.196;2023-08-07T11:36:43;6.57;;;1.98;;
20734;SDS011;10528;52.124;5.196;2023-08-07T11:39:13;9.73;;;2.40;;
20734;SDS011;10528;52.124;5.196;2023-08-07T11:41:40;5.00;;;2.17;;
20734;SDS011;10528;52.124;5.196;2023-08-07T11:44:08;7.43;;;1.80;;
20734;SDS011;10528;52.124;5.196;2023-08-07T11:46:35;6.32;;;1.77;;
20734;SDS011;10528;52.124;5.196;2023-08-07T11:49:02;10.68;;;2.00;;
20734;SDS011;10528;52.124;5.196;2023-08-07T11:51:30;8.13;;;1.83;;
20734;SDS011;10528;52.124;5.196;2023-08-07T11:53:59;6.03;;;1.80;;
20734;SDS011;10528;52.124;5.196;2023-08-07T11:56:26;7.10;;;1.98;;
20734;SDS011;10528;52.124;5.196;2023-08-07T11:58:54;4.53;;;1.77;;
20734;SDS011;10528;52.124;5.196;2023-08-07T12:01:24;6.95;;;2.17;;
20734;SDS011;10528;52.124;5.196;2023-08-07T12:06:32;6.20;;;1.50;;
20734;SDS011;10528;52.124;5.196;2023-08-07T12:09:00;7.55;;;1.80;;
20734;SDS011;10528;52.124;5.196;2023-08-07T12:11:28;5.20;;;1.60;;
20734;SDS011;10528;52.124;5.196;2023-08-07T12:13:59;5.60;;;1.55;;
20734;SDS011;10528;52.124;5.196;2023-08-07T12:16:34;3.92;;;1.40;;
20734;SDS011;10528;52.124;5.196;2023-08-07T12:19:01;5.63;;;1.40;;
20734;SDS011;10528;52.124;5.196;2023-08-07T12:21:30;6.93;;;1.50;;
20734;SDS011;10528;52.124;5.196;2023-08-07T12:23:59;4.40;;;1.48;;
20734;SDS011;10528;52.124;5.196;2023-08-07T12:26:26;4.35;;;1.42;;
20734;SDS011;10528;52.124;5.196;2023-08-07T12:28:53;4.07;;;1.30;;
20734;SDS011;10528;52.124;5.196;2023-08-07T12:31:20;7.32;;;1.50;;
20734;SDS011;10528;52.124;5.196;2023-08-07T12:33:47;5.85;;;1.90;;
20734;SDS011;10528;52.124;5.196;2023-08-07T12:36:15;8.85;;;1.90;;
20734;SDS011;10528;52.124;5.196;2023-08-07T12:38:45;6.53;;;1.75;;
20734;SDS011;10528;52.124;5.196;2023-08-07T12:41:12;4.20;;;1.50;;
20734;SDS011;10528;52.124;5.196;2023-08-07T12:43:43;4.93;;;1.33;;
20734;SDS011;10528;52.124;5.196;2023-08-07T12:46:10;3.45;;;1.10;;
20734;SDS011;10528;52.124;5.196;2023-08-07T12:48:40;5.57;;;1.45;;
20734;SDS011;10528;52.124;5.196;2023-08-07T12:51:07;4.57;;;1.60;;
20734;SDS011;10528;52.124;5.196;2023-08-07T12:53:34;4.70;;;1.50;;
20734;SDS011;10528;52.124;5.196;2023-08-07T12:56:01;6.32;;;1.75;;
20734;SDS011;10528;52.124;5.196;2023-08-07T12:58:29;3.90;;;1.40;;
20734;SDS011;10528;52.124;5.196;2023-08-07T13:00:56;5.43;;;1.33;;
20734;SDS011;10528;52.124;5.196;2023-08-07T13:03:23;3.85;;;1.30;;
20734;SDS011;10528;52.124;5.196;2023-08-07T13:05:51;2.92;;;1.00;;
20734;SDS011;10528;52.124;5.196;2023-08-07T13:08:18;3.17;;;1.20;;
20734;SDS011;10528;52.124;5.196;2023-08-07T13:10:45;7.38;;;1.17;;
20734;SDS011;10528;52.124;5.196;2023-08-07T13:13:15;5.95;;;1.40;;
20734;SDS011;10528;52.124;5.196;2023-08-07T13:15:42;5.05;;;1.15;;
20734;SDS011;10528;52.124;5.196;2023-08-07T13:18:09;6.00;;;1.20;;
20734;SDS011;10528;52.124;5.196;2023-08-07T13:20:37;5.05;;;1.17;;
20734;SDS011;10528;52.124;5.196;2023-08-07T13:23:04;3.88;;;1.10;;
20734;SDS011;10528;52.124;5.196;2023-08-07T13:25:32;4.38;;;1.20;;
20734;SDS011;10528;52.124;5.196;2023-08-07T13:28:00;3.45;;;1.10;;
20734;SDS011;10528;52.124;5.196;2023-08-07T13:30:30;3.17;;;1.23;;
20734;SDS011;10528;52.124;5.196;2023-08-07T13:33:02;2.50;;;1.10;;
20734;SDS011;10528;52.124;5.196;2023-08-07T13:35:30;5.45;;;1.48;;
20734;SDS011;10528;52.124;5.196;2023-08-07T13:37:59;3.88;;;1.55;;
20734;SDS011;10528;52.124;5.196;2023-08-07T13:40:26;4.00;;;1.40;;
20734;SDS011;10528;52.124;5.196;2023-08-07T13:42:53;4.68;;;1.45;;
20734;SDS011;10528;52.124;5.196;2023-08-07T13:45:20;4.32;;;1.42;;
20734;SDS011;10528;52.124;5.196;2023-08-07T13:47:47;5.63;;;1.73;;
20734;SDS011;10528;52.124;5.196;2023-08-07T13:50:14;2.83;;;1.08;;
20734;SDS011;10528;52.124;5.196;2023-08-07T13:52:41;3.78;;;1.30;;
20734;SDS011;10528;52.124;5.196;2023-08-07T13:55:09;3.03;;;1.27;;
20734;SDS011;10528;52.124;5.196;2023-08-07T13:57:36;3.47;;;1.33;;
20734;SDS011;10528;52.124;5.196;2023-08-07T14:00:03;5.10;;;1.38;;
20734;SDS011;10528;52.124;5.196;2023-08-07T14:02:31;3.20;;;1.10;;
20734;SDS011;10528;52.124;5.196;2023-08-07T14:05:01;2.70;;;1.00;;
20734;SDS011;10528;52.124;5.196;2023-08-07T14:07:28;5.35;;;2.05;;
20734;SDS011;10528;52.124;5.196;2023-08-07T14:09:55;3.00;;;1.20;;
20734;SDS011;10528;52.124;5.196;2023-08-07T14:12:22;4.13;;;1.10;;
20734;SDS011;10528;52.124;5.196;2023-08-07T14:14:49;4.20;;;1.08;;
20734;SDS011;10528;52.124;5.196;2023-08-07T14:17:16;3.70;;;1.40;;
20734;SDS011;10528;52.124;5.196;2023-08-07T14:19:43;4.53;;;1.42;;
20734;SDS011;10528;52.124;5.196;2023-08-07T14:22:10;5.25;;;1.30;;
20734;SDS011;10528;52.124;5.196;2023-08-07T14:24:37;2.80;;;1.20;;
20734;SDS011;10528;52.124;5.196;2023-08-07T14:27:04;5.43;;;1.50;;
20734;SDS011;10528;52.124;5.196;2023-08-07T14:29:31;4.35;;;1.60;;
20734;SDS011;10528;52.124;5.196;2023-08-07T14:31:58;3.38;;;1.20;;
20734;SDS011;10528;52.124;5.196;2023-08-07T14:34:25;2.15;;;1.20;;
20734;SDS011;10528;52.124;5.196;2023-08-07T14:36:52;4.45;;;1.63;;
20734;SDS011;10528;52.124;5.196;2023-08-07T14:39:20;3.35;;;1.40;;
20734;SDS011;10528;52.124;5.196;2023-08-07T14:41:49;4.32;;;1.50;;
20734;SDS011;10528;52.124;5.196;2023-08-07T14:44:18;2.83;;;1.33;;
20734;SDS011;10528;52.124;5.196;2023-08-07T14:46:45;3.65;;;1.60;;
20734;SDS011;10528;52.124;5.196;2023-08-07T14:49:12;3.83;;;1.60;;
20734;SDS011;10528;52.124;5.196;2023-08-07T14:51:39;11.75;;;2.35;;
20734;SDS011;10528;52.124;5.196;2023-08-07T14:54:06;3.03;;;1.48;;
20734;SDS011;10528;52.124;5.196;2023-08-07T14:56:33;4.97;;;1.60;;
20734;SDS011;10528;52.124;5.196;2023-08-07T14:59:00;5.10;;;1.90;;
20734;SDS011;10528;52.124;5.196;2023-08-07T15:01:27;4.35;;;1.92;;
20734;SDS011;10528;52.124;5.196;2023-08-07T15:03:54;5.18;;;1.73;;